createdAt,value
2016-04-13T06:28:15.162Z,37248
2016-04-13T06:28:28.693Z,37120
2016-04-13T06:28:42.726Z,36832
2016-04-13T06:28:56.632Z,36608
2016-04-13T06:29:10.554Z,36416
2016-04-13T06:29:25.085Z,36768
2016-04-13T06:29:42.167Z,37152
2016-04-13T06:29:56.401Z,36960
2016-04-13T06:30:24.682Z,37408
2016-04-13T06:30:38.857Z,38048
2016-04-13T06:30:52.857Z,38368
2016-04-13T06:31:06.607Z,38048
2016-04-13T06:31:20.716Z,38304
2016-04-13T06:31:34.937Z,38688
2016-04-13T06:31:49.047Z,38368
2016-04-13T06:32:03.359Z,38400
2016-04-13T06:32:17.390Z,38144
2016-04-13T06:32:31.297Z,37632
2016-04-13T06:32:48.581Z,38208
2016-04-13T06:33:05.862Z,38624
2016-04-13T06:33:20.143Z,37824
2016-04-13T06:33:34.596Z,37792
2016-04-13T06:34:02.770Z,37280
2016-04-13T06:34:17.130Z,36864
2016-04-13T06:34:45.758Z,38464
2016-04-13T06:35:00.555Z,39168
2016-04-13T06:35:14.617Z,39200
2016-04-13T06:35:42.073Z,40512
2016-04-13T06:35:56.261Z,40896
2016-04-13T06:36:10.620Z,40704
2016-04-13T06:36:24.901Z,40512
2016-04-13T06:36:39.169Z,40352
2016-04-13T06:36:53.294Z,40672
2016-04-13T06:37:07.825Z,40448
2016-04-13T06:37:22.263Z,40640
2016-04-13T06:37:36.735Z,40224
2016-04-13T06:37:50.829Z,40352
2016-04-13T06:38:05.345Z,40544
2016-04-13T06:38:19.735Z,40256
2016-04-13T06:38:33.829Z,40160
2016-04-13T06:38:48.347Z,40512
2016-04-13T06:39:16.722Z,41312
2016-04-13T06:39:30.503Z,41504
2016-04-13T06:39:44.864Z,41952
2016-04-13T06:39:58.739Z,42176
2016-04-13T06:40:12.661Z,42528
2016-04-13T06:40:26.583Z,43232
2016-04-13T06:40:40.618Z,43712
2016-04-13T06:40:55.181Z,43680
2016-04-13T06:41:12.181Z,43808
2016-04-13T06:41:26.118Z,43936
2016-04-13T06:41:39.620Z,43936
2016-04-13T06:41:53.792Z,43648
2016-04-13T06:42:07.683Z,43456
2016-04-13T06:42:21.792Z,43360
2016-04-13T06:42:36.155Z,43136
2016-04-13T06:42:50.233Z,43264
2016-04-13T06:43:04.608Z,43648
2016-04-13T06:43:18.795Z,43936
2016-04-13T06:43:32.702Z,44224
2016-04-13T06:43:46.797Z,44896
2016-04-13T06:44:01.016Z,45376
2016-04-13T06:44:15.204Z,45568
2016-04-13T06:44:29.579Z,46080
2016-04-13T06:44:43.644Z,46528
2016-04-13T06:44:57.769Z,46848
2016-04-13T06:45:12.035Z,47040
2016-04-13T06:45:26.160Z,47296
2016-04-13T06:45:40.538Z,47168
2016-04-13T06:45:54.975Z,47104
2016-04-13T06:46:09.694Z,46944
2016-04-13T06:46:24.053Z,47040
2016-04-13T06:46:38.259Z,47008
2016-04-13T06:46:52.338Z,47008
2016-04-13T06:47:06.978Z,46912
2016-04-13T06:47:21.306Z,47040
2016-04-13T06:47:35.275Z,47168
2016-04-13T06:47:49.183Z,47296
2016-04-13T06:48:03.277Z,47424
2016-04-13T06:48:31.480Z,47456
2016-04-13T06:48:45.733Z,47488
2016-04-13T06:48:59.749Z,47616
2016-04-13T06:49:13.983Z,47328
2016-04-13T06:49:28.202Z,47584
2016-04-13T06:49:42.704Z,47616
2016-04-13T06:49:57.626Z,47552
2016-04-13T06:50:13.360Z,47488
2016-04-13T06:50:27.766Z,47552
2016-04-13T06:50:41.317Z,47520
2016-04-13T06:50:58.239Z,47680
2016-04-13T06:51:12.442Z,47680
2016-04-13T06:51:26.567Z,47808
2016-04-13T06:51:40.726Z,48128
2016-04-13T06:52:09.101Z,48352
2016-04-13T06:52:26.460Z,48544
2016-04-13T06:52:40.682Z,48832
2016-04-13T06:52:55.057Z,49024
2016-04-13T06:53:09.260Z,49248
2016-04-13T06:53:23.244Z,49792
2016-04-13T06:53:37.574Z,50144
2016-04-13T06:53:51.949Z,50496
2016-04-13T06:54:09.449Z,50944
2016-04-13T06:54:23.902Z,51264
2016-04-13T06:54:37.874Z,51584
2016-04-13T06:54:52.062Z,51904
2016-04-13T06:55:06.327Z,52192
2016-04-13T06:55:20.577Z,52288
2016-04-13T06:55:34.827Z,52320
2016-04-13T06:55:49.065Z,52192
2016-04-13T06:56:03.143Z,52288
2016-04-13T06:56:17.471Z,52064
2016-04-13T06:56:31.908Z,51776
2016-04-13T06:56:46.380Z,51520
2016-04-13T06:57:00.458Z,51008
2016-04-13T06:57:17.755Z,50784
2016-04-13T06:57:31.958Z,50848
2016-04-13T06:57:46.523Z,51040
2016-04-13T06:58:00.679Z,50912
2016-04-13T06:58:14.773Z,51136
2016-04-13T06:58:28.804Z,51328
2016-04-13T06:58:43.104Z,51552
2016-04-13T06:58:57.463Z,51872
2016-04-13T06:59:11.979Z,52128
2016-04-13T06:59:26.745Z,52512
2016-04-13T06:59:41.576Z,52704
2016-04-13T06:59:56.310Z,53056
2016-04-13T07:00:10.513Z,53248
2016-04-13T07:00:25.029Z,53536
2016-04-13T07:00:38.781Z,53632
2016-04-13T07:00:52.984Z,53984
2016-04-13T07:01:07.250Z,54240
2016-04-13T07:01:21.250Z,54656
2016-04-13T07:01:35.406Z,55200
2016-04-13T07:01:49.128Z,55744
2016-04-13T07:02:03.268Z,56096
2016-04-13T07:02:17.549Z,56512
2016-04-13T07:02:31.799Z,56768
2016-04-13T07:02:46.084Z,56992
2016-04-13T07:03:00.631Z,57216
2016-04-13T07:03:14.896Z,57504
2016-04-13T07:03:29.318Z,57760
2016-04-13T07:03:43.570Z,57728
2016-04-13T07:03:57.883Z,57632
2016-04-13T07:04:12.273Z,57504
2016-04-13T07:04:26.789Z,57152
2016-04-13T07:04:41.073Z,57120
2016-04-13T07:04:55.651Z,57216
2016-04-13T07:05:23.995Z,56960
2016-04-13T07:05:52.607Z,56736
2016-04-13T07:06:06.889Z,57024
2016-04-13T07:06:38.016Z,57344
2016-04-13T07:06:52.297Z,57440
2016-04-13T07:07:06.266Z,57696
2016-04-13T07:07:34.266Z,58240
2016-04-13T07:08:16.862Z,59584
2016-04-13T07:08:31.144Z,60096
2016-04-13T07:08:45.599Z,60288
2016-04-13T07:08:59.880Z,60608
2016-04-13T07:09:14.083Z,61024
2016-04-13T07:09:28.224Z,61120
2016-04-13T07:09:45.633Z,61472
2016-04-13T07:10:03.164Z,61152
2016-04-13T07:10:17.289Z,60896
2016-04-13T07:10:34.289Z,60640
2016-04-13T07:10:48.370Z,60032
2016-04-13T07:11:02.527Z,59712
2016-04-13T07:11:17.183Z,59520
2016-04-13T07:11:31.464Z,59328
2016-04-13T07:11:45.591Z,59072
2016-04-13T07:11:59.794Z,58592
2016-04-13T07:12:13.857Z,58400
2016-04-13T07:12:29.950Z,58400
2016-04-13T07:12:44.172Z,58496
2016-04-13T07:12:58.266Z,58624
2016-04-13T07:13:12.610Z,58848
2016-04-13T07:13:26.719Z,59008
2016-04-13T07:13:41.035Z,59648
2016-04-13T07:13:55.300Z,59936
2016-04-13T07:14:09.456Z,60064
2016-04-13T07:14:23.613Z,60288
2016-04-13T07:14:38.084Z,60160
2016-04-13T07:14:52.553Z,60032
2016-04-13T07:15:07.131Z,59904
2016-04-13T07:15:21.506Z,59648
2016-04-13T07:15:35.959Z,59584
2016-04-13T07:15:50.150Z,59552
2016-04-13T07:16:04.103Z,59456
2016-04-13T07:16:18.572Z,59648
2016-04-13T07:16:32.978Z,59936
2016-04-13T07:16:47.652Z,60192
2016-04-13T07:17:02.011Z,60672
2016-04-13T07:17:16.199Z,60800
2016-04-13T07:17:30.386Z,60608
2016-04-13T07:17:44.264Z,60608
2016-04-13T07:17:58.202Z,60672
2016-04-13T07:18:12.092Z,60736
2016-04-13T07:18:27.124Z,60736
2016-04-13T07:18:41.517Z,60576
2016-04-13T07:18:55.767Z,60288
2016-04-13T07:19:13.080Z,60224
2016-04-13T07:19:41.254Z,60832
2016-04-13T07:19:56.097Z,60608
2016-04-13T07:20:13.379Z,60672
2016-04-13T07:20:27.597Z,60512
2016-04-13T07:20:41.851Z,60512
2016-04-13T07:20:56.258Z,60320
2016-04-13T07:21:09.508Z,60032
2016-04-13T07:21:24.023Z,59360
2016-04-13T07:21:38.275Z,58912
2016-04-13T07:21:52.463Z,58656
2016-04-13T07:22:10.228Z,58400
2016-04-13T07:22:25.260Z,57632
2016-04-13T07:22:39.825Z,57344
2016-04-13T07:22:53.888Z,57184
2016-04-13T07:23:36.247Z,58336
2016-04-13T07:23:50.578Z,58912
2016-04-13T07:24:04.844Z,59776
2016-04-13T07:24:18.281Z,60384
2016-04-13T07:24:32.328Z,61056
2016-04-13T07:24:46.424Z,61824
2016-04-13T07:25:00.815Z,62304
2016-04-13T07:25:14.830Z,62720
2016-04-13T07:25:29.236Z,63072
2016-04-13T07:25:42.599Z,62976
2016-04-13T07:25:56.693Z,62880
2016-04-13T07:26:10.708Z,62880
2016-04-13T07:26:25.208Z,62944
2016-04-13T07:26:39.757Z,62944
2016-04-13T07:26:53.976Z,62848
2016-04-13T07:27:36.713Z,62912
2016-04-13T07:27:50.807Z,63104
2016-04-13T07:28:05.088Z,63072
2016-04-13T07:28:19.338Z,63008
2016-04-13T07:28:33.432Z,62688
2016-04-13T07:28:47.576Z,62592
2016-04-13T07:29:01.732Z,62560
2016-04-13T07:29:15.669Z,62560
2016-04-13T07:29:30.029Z,62720
2016-04-13T07:29:44.468Z,62880
2016-04-13T07:29:58.812Z,62848
2016-04-13T07:30:15.359Z,62944
2016-04-13T07:30:32.687Z,63136
2016-04-13T07:30:46.831Z,63200
2016-04-13T07:31:01.721Z,63232
2016-04-13T07:31:22.331Z,63520
2016-04-13T07:31:37.411Z,63488
2016-04-13T07:31:51.426Z,63488
2016-04-13T07:32:06.020Z,63424
2016-04-13T07:32:20.536Z,63296
2016-04-13T07:32:35.223Z,63168
2016-04-13T07:32:49.304Z,63424
2016-04-13T07:33:03.429Z,63424
2016-04-13T07:33:17.492Z,63488
2016-04-13T07:33:31.445Z,63424
2016-04-13T07:33:45.917Z,63296
2016-04-13T07:34:00.729Z,63456
2016-04-13T07:34:14.885Z,63808
2016-04-13T07:34:28.870Z,64192
2016-04-13T07:34:43.387Z,64544
2016-04-13T07:34:57.716Z,64672
2016-04-13T07:35:15.575Z,64992
2016-04-13T07:35:30.028Z,64928
2016-04-13T07:35:44.016Z,64832
2016-04-13T07:35:58.048Z,64736
2016-04-13T07:36:12.516Z,64736
2016-04-13T07:36:26.610Z,64800
2016-04-13T07:36:40.956Z,64768
2016-04-13T07:36:54.925Z,64832
2016-04-13T07:37:09.628Z,64832
2016-04-13T07:37:24.081Z,64768
2016-04-13T07:37:37.553Z,64672
2016-04-13T07:37:51.053Z,64672
2016-04-13T07:38:05.240Z,64640
2016-04-13T07:38:20.334Z,64416
2016-04-13T07:38:34.537Z,64032
2016-04-13T07:38:55.290Z,63840
2016-04-13T07:39:10.071Z,63808
2016-04-13T07:39:38.433Z,64800
2016-04-13T07:39:53.308Z,65056
2016-04-13T07:40:07.511Z,65856
2016-04-13T07:40:21.605Z,66336
2016-04-13T07:40:36.011Z,66816
2016-04-13T07:40:50.311Z,67328
2016-04-13T07:41:04.514Z,67456
2016-04-13T07:41:18.654Z,67424
2016-04-13T07:41:33.264Z,67584
2016-04-13T07:41:47.470Z,67360
2016-04-13T07:42:01.861Z,67168
2016-04-13T07:42:16.095Z,66848
2016-04-13T07:42:30.189Z,66464
2016-04-13T07:42:44.706Z,65824
2016-04-13T07:42:58.597Z,65376
2016-04-13T07:43:12.863Z,65184
2016-04-13T07:43:30.097Z,64960
2016-04-13T07:43:44.506Z,64736
2016-04-13T07:43:58.694Z,64576
2016-04-13T07:44:13.069Z,64384
2016-04-13T07:44:27.303Z,64512
2016-04-13T07:44:41.399Z,64896
2016-04-13T07:44:55.743Z,65408
2016-04-13T07:45:09.711Z,65600
2016-04-13T07:45:23.914Z,65760
2016-04-13T07:45:44.042Z,66464
2016-04-13T07:45:58.074Z,67168
2016-04-13T07:46:12.214Z,67776
2016-04-13T07:46:26.214Z,68096
2016-04-13T07:46:40.483Z,68096
2016-04-13T07:46:57.967Z,67968
2016-04-13T07:47:12.530Z,68224
2016-04-13T07:47:26.717Z,68480
2016-04-13T07:47:43.766Z,68800
2016-04-13T07:48:11.735Z,69184
2016-04-13T07:48:26.938Z,69440
2016-04-13T07:48:41.066Z,69920
2016-04-13T07:48:55.457Z,70464
2016-04-13T07:49:09.535Z,70592
2016-04-13T07:49:23.738Z,70880
2016-04-13T07:49:38.975Z,71072
2016-04-13T07:49:53.241Z,71424
2016-04-13T07:50:07.522Z,71360
2016-04-13T07:50:23.132Z,71232
2016-04-13T07:50:37.431Z,71392
2016-04-13T07:50:51.900Z,71360
2016-04-13T07:51:06.338Z,71264
2016-04-13T07:51:20.400Z,71360
2016-04-13T07:51:34.666Z,71328
2016-04-13T07:51:48.903Z,71264
2016-04-13T07:52:03.216Z,71232
2016-04-13T07:52:18.059Z,71136
2016-04-13T07:52:35.247Z,71136
2016-04-13T07:52:50.202Z,71168
2016-04-13T07:53:04.577Z,71328
2016-04-13T07:53:18.890Z,71264
2016-04-13T07:53:33.421Z,70976
2016-04-13T07:53:47.455Z,70976
2016-04-13T07:54:01.580Z,70848
2016-04-13T07:54:15.705Z,70656
2016-04-13T07:54:29.768Z,70816
2016-04-13T07:54:43.879Z,70880
2016-04-13T07:54:58.660Z,71200
2016-04-13T07:55:11.488Z,71648
2016-04-13T07:55:25.473Z,72288
2016-04-13T07:55:39.679Z,72800
2016-04-13T07:55:57.944Z,73376
2016-04-13T07:56:12.429Z,73728
2016-04-13T07:56:26.288Z,73696
2016-04-13T07:56:54.947Z,72960
2016-04-13T07:57:08.994Z,72704
2016-04-13T07:57:22.916Z,72096
2016-04-13T07:57:37.309Z,71456
2016-04-13T07:57:51.731Z,71040
2016-04-13T07:58:06.043Z,71104
2016-04-13T07:58:21.528Z,71488
2016-04-13T07:58:35.699Z,72032
2016-04-13T07:58:49.844Z,72736
2016-04-13T07:59:21.000Z,74336
2016-04-13T07:59:35.172Z,74624
2016-04-13T07:59:49.534Z,74688
2016-04-13T08:00:03.596Z,74528
2016-04-13T08:00:17.705Z,74016
2016-04-13T08:00:31.737Z,73664
2016-04-13T08:00:45.849Z,73408
2016-04-13T08:01:03.162Z,73248
2016-04-13T08:01:20.271Z,72832
2016-04-13T08:01:34.318Z,72672
2016-04-13T08:01:48.665Z,72512
2016-04-13T08:02:02.805Z,72896
2016-04-13T08:02:16.868Z,73280
2016-04-13T08:02:45.401Z,73248
2016-04-13T08:02:59.385Z,73216
2016-04-13T08:03:27.838Z,73760
2016-04-13T08:03:41.841Z,73984
2016-04-13T08:03:55.951Z,73824
2016-04-13T08:04:27.310Z,73536
2016-04-13T08:04:41.703Z,73216
2016-04-13T08:04:55.687Z,73120
2016-04-13T08:05:09.843Z,73216
2016-04-13T08:05:23.937Z,73216
2016-04-13T08:05:52.034Z,73888
2016-04-13T08:06:06.206Z,74272
2016-04-13T08:06:20.550Z,74944
2016-04-13T08:06:34.893Z,75456
2016-04-13T08:06:48.146Z,75744
2016-04-13T08:07:02.428Z,75872
2016-04-13T08:07:30.428Z,75776
2016-04-13T08:07:44.476Z,75648
2016-04-13T08:07:58.664Z,75296
2016-04-13T08:08:13.216Z,74784
2016-04-13T08:08:27.216Z,74464
2016-04-13T08:08:41.594Z,74592
2016-04-13T08:08:55.469Z,74560
2016-04-13T08:09:09.797Z,74208
2016-04-13T08:09:24.844Z,74240
2016-04-13T08:10:07.361Z,74656
2016-04-13T08:10:21.486Z,74560
2016-04-13T08:10:35.424Z,74304
2016-04-13T08:10:49.583Z,73920
2016-04-13T08:11:03.583Z,73856
2016-04-13T08:11:31.817Z,74304
2016-04-13T08:11:45.852Z,74592
2016-04-13T08:11:59.774Z,75168
2016-04-13T08:12:14.070Z,75648
2016-04-13T08:12:30.930Z,75744
2016-04-13T08:12:45.307Z,76096
2016-04-13T08:13:16.322Z,76160
2016-04-13T08:13:30.276Z,76064
2016-04-13T08:13:44.311Z,76448
2016-04-13T08:14:00.076Z,76768
2016-04-13T08:14:14.061Z,76800
2016-04-13T08:14:28.733Z,76576
2016-04-13T08:14:56.813Z,76672
2016-04-13T08:15:10.844Z,76608
2016-04-13T08:15:25.157Z,76832
2016-04-13T08:16:07.597Z,77536
2016-04-13T08:16:21.675Z,77888
2016-04-13T08:16:35.753Z,78080
2016-04-13T08:16:52.006Z,78560
2016-04-13T08:17:06.288Z,78976
2016-04-13T08:17:20.256Z,79136
2016-04-13T08:17:48.399Z,78624
2016-04-13T08:18:03.211Z,78752
2016-04-13T08:18:17.477Z,78720
2016-04-13T08:18:31.540Z,78560
2016-04-13T08:18:46.074Z,78752
2016-04-13T08:19:00.308Z,79008
2016-04-13T08:19:14.527Z,79136
2016-04-13T08:19:28.449Z,79456
2016-04-13T08:19:43.092Z,79680
2016-04-13T08:19:57.452Z,79936
2016-04-13T08:20:11.358Z,80224
2016-04-13T08:20:25.717Z,80704
2016-04-13T08:20:40.001Z,81536
2016-04-13T08:20:54.126Z,81920
2016-04-13T08:21:08.423Z,82368
2016-04-13T08:21:22.641Z,82752
2016-04-13T08:21:36.926Z,83296
2016-04-13T08:21:51.316Z,83456
2016-04-13T08:22:05.347Z,83648
2016-04-13T08:22:19.441Z,83712
2016-04-13T08:22:33.847Z,83648
2016-04-13T08:22:47.850Z,83616
2016-04-13T08:23:30.194Z,83136
2016-04-13T08:23:44.510Z,83008
2016-04-13T08:24:12.494Z,83072
2016-04-13T08:24:26.807Z,82912
2016-04-13T08:24:40.856Z,82816
2016-04-13T08:24:54.950Z,83104
2016-04-13T08:25:09.200Z,83168
2016-04-13T08:25:23.341Z,83040
2016-04-13T08:25:37.405Z,83360
2016-04-13T08:25:51.608Z,83680
2016-04-13T08:26:05.343Z,83840
2016-04-13T08:26:19.530Z,83904
2016-04-13T08:26:33.233Z,83552
2016-04-13T08:26:47.533Z,83072
2016-04-13T08:27:01.815Z,82656
2016-04-13T08:27:15.971Z,82368
2016-04-13T08:27:30.065Z,82208
2016-04-13T08:27:47.520Z,82208
2016-04-13T08:28:01.817Z,82144
2016-04-13T08:28:15.738Z,82080
2016-04-13T08:28:30.082Z,82144
2016-04-13T08:28:44.195Z,82304
2016-04-13T08:28:58.226Z,82336
2016-04-13T08:29:11.757Z,82400
2016-04-13T08:29:26.038Z,83104
2016-04-13T08:29:40.432Z,83552
2016-04-13T08:29:54.573Z,84064
2016-04-13T08:30:08.885Z,84544
2016-04-13T08:30:23.057Z,85056
2016-04-13T08:30:36.635Z,85504
2016-04-13T08:30:50.950Z,85440
2016-04-13T08:31:04.887Z,85760
2016-04-13T08:31:18.981Z,86112
2016-04-13T08:31:32.434Z,86144
2016-04-13T08:31:46.937Z,86144
2016-04-13T08:32:01.078Z,86272
2016-04-13T08:32:15.343Z,85952
2016-04-13T08:32:29.546Z,85984
2016-04-13T08:32:43.642Z,85984
2016-04-13T08:32:58.533Z,86112
2016-04-13T08:33:12.408Z,86176
2016-04-13T08:33:26.314Z,86400
2016-04-13T08:33:40.333Z,86592
2016-04-13T08:33:54.520Z,86560
2016-04-13T08:34:08.520Z,86656
2016-04-13T08:34:22.489Z,86976
2016-04-13T08:34:36.789Z,87488
2016-04-13T08:34:50.757Z,88096
2016-04-13T08:35:04.961Z,88672
2016-04-13T08:35:22.164Z,89280
2016-04-13T08:35:36.461Z,89920
2016-04-13T08:35:50.025Z,90688
2016-04-13T08:36:04.119Z,91136
2016-04-13T08:36:18.634Z,91680
2016-04-13T08:36:35.775Z,92032
2016-04-13T08:36:50.138Z,92160
2016-04-13T08:37:04.623Z,92128
2016-04-13T08:37:19.592Z,91968
2016-04-13T08:37:33.826Z,91456
2016-04-13T08:37:47.719Z,91200
2016-04-13T08:38:02.250Z,90752
2016-04-13T08:38:16.250Z,90304
2016-04-13T08:38:30.515Z,89696
2016-04-13T08:38:45.518Z,89312
2016-04-13T08:39:13.722Z,89376
2016-04-13T08:39:28.284Z,89248
2016-04-13T08:39:42.317Z,90272
2016-04-13T08:39:56.739Z,91136
2016-04-13T08:40:10.770Z,91968
2016-04-13T08:40:38.914Z,92640
2016-04-13T08:40:56.070Z,92704
2016-04-13T08:41:10.164Z,92288
2016-04-13T08:41:24.227Z,92800
2016-04-13T08:41:38.136Z,93248
2016-04-13T08:42:06.230Z,93888
2016-04-13T08:42:23.683Z,93632
2016-04-13T08:42:37.700Z,93056
2016-04-13T08:42:51.607Z,93504
2016-04-13T08:43:05.778Z,94432
2016-04-13T08:43:20.044Z,94688
2016-04-13T08:43:34.325Z,94656
2016-04-13T08:43:48.328Z,94944
2016-04-13T08:44:02.828Z,95456
2016-04-13T08:44:17.031Z,95648
2016-04-13T08:44:30.938Z,95552
2016-04-13T08:44:45.174Z,95488
2016-04-13T08:44:59.237Z,95616
2016-04-13T08:45:13.080Z,95744
2016-04-13T08:45:27.643Z,96000
2016-04-13T08:45:41.724Z,96032
2016-04-13T08:45:55.677Z,95872
2016-04-13T08:46:12.677Z,96352
2016-04-13T08:46:27.536Z,97184
2016-04-13T08:46:41.758Z,97600
2016-04-13T08:46:55.883Z,97312
2016-04-13T08:47:10.118Z,97600
2016-04-13T08:47:24.336Z,98240
2016-04-13T08:47:38.464Z,99168
2016-04-13T08:47:55.824Z,98944
2016-04-13T08:48:09.621Z,98944
2016-04-13T08:48:37.014Z,99488
2016-04-13T08:48:51.295Z,99488
2016-04-13T08:49:05.655Z,99040
2016-04-13T08:49:19.702Z,99040
2016-04-13T08:49:33.717Z,98848
2016-04-13T08:49:47.705Z,99328
2016-04-13T08:50:01.798Z,99680
2016-04-13T08:50:15.908Z,99072
2016-04-13T08:50:29.939Z,98784
2016-04-13T08:50:44.800Z,99072
2016-04-13T08:50:59.050Z,99936
2016-04-13T08:51:12.925Z,100576
2016-04-13T08:51:27.004Z,100960
2016-04-13T08:51:41.272Z,101312
2016-04-13T08:51:55.460Z,102144
2016-04-13T08:52:09.678Z,102784
2016-04-13T08:52:23.507Z,103616
2016-04-13T08:52:38.134Z,103936
2016-04-13T08:52:52.384Z,104320
2016-04-13T08:53:05.118Z,104896
2016-04-13T08:53:19.196Z,105408
2016-04-13T08:53:33.665Z,105728
2016-04-13T08:53:47.605Z,105856
2016-04-13T08:54:01.871Z,105440
2016-04-13T08:54:15.715Z,105248
2016-04-13T08:54:29.715Z,99392
2016-04-13T08:54:43.577Z,104448
2016-04-13T08:55:11.874Z,104384
2016-04-13T08:55:26.015Z,104704
2016-04-13T08:55:39.924Z,105152
2016-04-13T08:55:54.049Z,105984
2016-04-13T08:56:08.033Z,106848
2016-04-13T08:56:22.189Z,107840
2016-04-13T08:56:36.143Z,108352
2016-04-13T08:56:50.333Z,109632
2016-04-13T08:57:04.614Z,104928
2016-04-13T08:57:18.614Z,97440
2016-04-13T08:57:32.692Z,81792
2016-04-13T08:57:50.101Z,105760
2016-04-13T08:58:05.663Z,107840
2016-04-13T08:58:19.507Z,108864
2016-04-13T08:58:33.648Z,107392
2016-04-13T08:58:47.651Z,108320
2016-04-13T08:59:01.557Z,103040
2016-04-13T08:59:16.182Z,97472
2016-04-13T08:59:30.776Z,94976
2016-04-13T08:59:44.699Z,97312
2016-04-13T08:59:59.184Z,95584
2016-04-13T09:00:13.184Z,102336
2016-04-13T09:00:27.387Z,88352
2016-04-13T09:00:41.406Z,106656
2016-04-13T09:00:55.343Z,92832
2016-04-13T09:01:23.921Z,48352
2016-04-13T09:01:37.784Z,60928
2016-04-13T09:01:51.737Z,62240
2016-04-13T09:02:05.799Z,64736
2016-04-13T09:02:19.799Z,73024
2016-04-13T09:02:33.940Z,68384
2016-04-13T09:02:48.098Z,97312
2016-04-13T09:03:02.145Z,102144
2016-04-13T09:03:16.348Z,68960
2016-04-13T09:03:30.254Z,74592
2016-04-13T09:03:44.460Z,110432
2016-04-13T09:03:58.960Z,103680
2016-04-13T09:04:16.320Z,112992
2016-04-13T09:04:33.476Z,117408
2016-04-13T09:04:50.900Z,121472
2016-04-13T09:05:07.869Z,125216
2016-04-13T09:05:22.384Z,127776
2016-04-13T09:05:36.400Z,129184
2016-04-13T09:05:50.528Z,129792
2016-04-13T09:06:04.887Z,129536
2016-04-13T09:06:18.997Z,128864
2016-04-13T09:06:47.203Z,116384
2016-04-13T09:07:04.328Z,108992
2016-04-13T09:07:18.672Z,113792
2016-04-13T09:07:32.843Z,121472
2016-04-13T09:07:47.425Z,120672
2016-04-13T09:08:01.362Z,97024
2016-04-13T09:08:15.346Z,122624
2016-04-13T09:08:29.503Z,80864
2016-04-13T09:08:43.583Z,88512
2016-04-13T09:08:57.536Z,93920
2016-04-13T09:09:11.552Z,101856
2016-04-13T09:09:25.833Z,112928
2016-04-13T09:09:39.883Z,115424
2016-04-13T09:09:54.086Z,110592
2016-04-13T09:10:08.383Z,96288
2016-04-13T09:10:28.836Z,114304
2016-04-13T09:10:42.948Z,113984
2016-04-13T09:10:57.245Z,111552
2016-04-13T09:11:11.386Z,109952
2016-04-13T09:11:25.292Z,108192
2016-04-13T09:11:39.247Z,107040
2016-04-13T09:11:53.356Z,106016
2016-04-13T09:12:07.700Z,104768
2016-04-13T09:12:22.278Z,103712
2016-04-13T09:12:36.716Z,102912
2016-04-13T09:12:50.859Z,102496
2016-04-13T09:13:05.047Z,102656
2016-04-13T09:13:33.078Z,102656
2016-04-13T09:13:47.128Z,102912
2016-04-13T09:14:01.472Z,102976
2016-04-13T09:14:15.597Z,102752
2016-04-13T09:14:29.597Z,102848
2016-04-13T09:14:43.881Z,102464
2016-04-13T09:15:00.803Z,102048
2016-04-13T09:15:18.178Z,101696
2016-04-13T09:15:31.912Z,101248
2016-04-13T09:15:46.274Z,100352
2016-04-13T09:16:00.446Z,100160
2016-04-13T09:16:14.586Z,100288
2016-04-13T09:16:28.617Z,100000
2016-04-13T09:16:42.667Z,100032
2016-04-13T09:16:56.933Z,100768
2016-04-13T09:17:11.464Z,101184
2016-04-13T09:17:28.042Z,102016
2016-04-13T09:17:42.013Z,102720
2016-04-13T09:17:55.935Z,103072
2016-04-13T09:18:09.966Z,103648
2016-04-13T09:18:23.966Z,103840
2016-04-13T09:18:37.938Z,104384
2016-04-13T09:18:52.094Z,104800
2016-04-13T09:19:06.094Z,105952
2016-04-13T09:19:19.907Z,106848
2016-04-13T09:19:34.000Z,107840
2016-04-13T09:19:47.957Z,108000
2016-04-13T09:20:02.019Z,108096
2016-04-13T09:20:19.207Z,107840
2016-04-13T09:20:33.472Z,107840
2016-04-13T09:20:47.460Z,108096
2016-04-13T09:21:01.756Z,107936
2016-04-13T09:21:44.447Z,108672
2016-04-13T09:21:58.572Z,108352
2016-04-13T09:22:27.134Z,107424
2016-04-13T09:22:41.465Z,107232
2016-04-13T09:22:55.855Z,106400
2016-04-13T09:23:09.824Z,105248
2016-04-13T09:23:35.746Z,104576
2016-04-13T09:23:49.921Z,104384
2016-04-13T09:24:04.311Z,103840
2016-04-13T09:24:18.811Z,103424
2016-04-13T09:24:36.452Z,103616
2016-04-13T09:24:50.720Z,103840
2016-04-13T09:25:18.891Z,104672
2016-04-13T09:25:32.766Z,104864
2016-04-13T09:25:46.723Z,105248
2016-04-13T09:26:14.707Z,105184
2016-04-13T09:26:43.163Z,104160
2016-04-13T09:26:57.663Z,103872
2016-04-13T09:27:12.085Z,103552
2016-04-13T09:27:26.335Z,103008
2016-04-13T09:27:54.447Z,101184
2016-04-13T09:28:09.479Z,100800
2016-04-13T09:28:23.400Z,100640
2016-04-13T09:28:37.435Z,100320
2016-04-13T09:28:51.419Z,100608
2016-04-13T09:29:05.810Z,102048
2016-04-13T09:29:19.982Z,102720
2016-04-13T09:29:34.372Z,103040
2016-04-13T09:29:48.499Z,103200
2016-04-13T09:30:02.577Z,102880
2016-04-13T09:30:16.671Z,102496
2016-04-13T09:30:30.593Z,101728
2016-04-13T09:30:58.596Z,99136
2016-04-13T09:31:12.549Z,98432
2016-04-13T09:31:26.580Z,97920
2016-04-13T09:31:40.707Z,97536
2016-04-13T09:31:54.879Z,97664
2016-04-13T09:32:08.848Z,98016
2016-04-13T09:32:22.848Z,98496
2016-04-13T09:32:37.129Z,98784
2016-04-13T09:32:51.242Z,98912
2016-04-13T09:33:04.648Z,99200
2016-04-13T09:33:19.460Z,99648
2016-04-13T09:33:48.447Z,99744
2016-04-13T09:34:02.353Z,99808
2016-04-13T09:34:16.306Z,99968
2016-04-13T09:34:30.619Z,99840
2016-04-13T09:34:45.075Z,99936
2016-04-13T09:34:59.590Z,100256
2016-04-13T09:35:13.809Z,100480
2016-04-13T09:35:28.184Z,100672
2016-04-13T09:35:42.250Z,101120
2016-04-13T09:35:55.828Z,102240
2016-04-13T09:36:09.843Z,102656
2016-04-13T09:36:23.750Z,103264
2016-04-13T09:36:37.548Z,103744
2016-04-13T09:37:20.017Z,104576
2016-04-13T09:37:34.611Z,104800
2016-04-13T09:37:49.052Z,104608
2016-04-13T09:38:02.318Z,104864
2016-04-13T09:38:16.474Z,104128
2016-04-13T09:38:30.412Z,103776
2016-04-13T09:38:44.664Z,103488
2016-04-13T09:39:12.586Z,102688
2016-04-13T09:39:26.836Z,102752
2016-04-13T09:39:40.776Z,102688
2016-04-13T09:39:54.667Z,102464
2016-04-13T09:40:08.698Z,103008
2016-04-13T09:40:22.839Z,103968
2016-04-13T09:40:36.948Z,104864
2016-04-13T09:40:51.294Z,105792
2016-04-13T09:41:05.450Z,106976
2016-04-13T09:41:19.778Z,107616
2016-04-13T09:41:33.700Z,107104
2016-04-13T09:41:47.734Z,106656
2016-04-13T09:42:01.937Z,106016
2016-04-13T09:42:15.953Z,105664
2016-04-13T09:42:30.141Z,104992
2016-04-13T09:42:44.300Z,104416
2016-04-13T09:42:58.300Z,103904
2016-04-13T09:43:12.362Z,103168
2016-04-13T09:43:26.394Z,103520
2016-04-13T09:43:40.364Z,103648
2016-04-13T09:43:54.474Z,103968
2016-04-13T09:44:08.364Z,104160
2016-04-13T09:44:22.771Z,105120
2016-04-13T09:44:36.817Z,105024
2016-04-13T09:44:51.195Z,104992
2016-04-13T09:45:05.414Z,104512
2016-04-13T09:45:19.914Z,103616
2016-04-13T09:45:34.305Z,102272
2016-04-13T09:45:48.386Z,100416
2016-04-13T09:46:02.589Z,99520
2016-04-13T09:46:17.089Z,99008
2016-04-13T09:46:31.917Z,97248